createdAt,value
2022-12-19T01:17:07.463Z,49.51
2022-12-19T01:19:41.921Z,48.22
2022-12-19T01:22:13.687Z,49.94
2022-12-19T01:24:42.472Z,50.75
2022-12-19T01:27:11.369Z,51.20
2022-12-19T01:29:52.441Z,53.21
2022-12-19T01:32:23.402Z,54.56
2022-12-19T01:34:53.100Z,55.28
2022-12-19T01:37:21.478Z,56.44
2022-12-19T01:39:49.763Z,57.60
2022-12-19T01:42:23.623Z,57.63
2022-12-19T01:45:19.340Z,58.94
2022-12-19T01:47:53.682Z,61.14
2022-12-19T01:51:02.921Z,60.00
2022-12-19T01:53:48.298Z,59.95
2022-12-19T01:56:24.876Z,59.19
2022-12-19T01:59:05.712Z,57.73
2022-12-19T02:01:40.904Z,57.09
2022-12-19T02:04:29.417Z,56.66
2022-12-19T02:07:15.595Z,55.27
2022-12-19T02:09:46.913Z,57.63
2022-12-19T02:12:15.573Z,58.98
2022-12-19T02:14:44.043Z,56.49
2022-12-19T02:17:34.337Z,54.10
2022-12-19T02:20:30.186Z,53.20
2022-12-19T02:23:05.048Z,50.24
2022-12-19T02:25:50.056Z,49.95
2022-12-19T02:28:32.945Z,48.36
2022-12-19T02:31:30.813Z,47.07
2022-12-19T02:34:15.674Z,49.67
2022-12-19T02:37:20.909Z,49.93
2022-12-19T02:40:14.965Z,46.88
2022-12-19T02:42:46.671Z,47.29
2022-12-19T02:45:24.713Z,49.02
2022-12-19T02:48:04.479Z,48.01
2022-12-19T02:50:39.102Z,47.20
2022-12-19T02:53:09.484Z,44.80
2022-12-19T02:56:00.137Z,45.02
2022-12-19T02:58:57.017Z,43.87
2022-12-19T03:02:18.896Z,46.97
2022-12-19T03:05:16.817Z,44.96
2022-12-19T03:08:06.478Z,44.79
2022-12-19T03:10:47.301Z,44.24
2022-12-19T03:13:21.661Z,44.89
2022-12-19T03:15:51.363Z,44.40
2022-12-19T03:18:20.230Z,44.95
2022-12-19T03:21:11.007Z,45.56
2022-12-19T03:23:40.896Z,45.04
2022-12-19T03:26:19.926Z,43.29
2022-12-19T03:28:52.766Z,42.57
2022-12-19T03:31:25.427Z,43.53
2022-12-19T03:34:03.303Z,43.03
2022-12-19T03:36:38.986Z,41.59
2022-12-19T03:39:10.222Z,41.43
2022-12-19T03:41:59.602Z,42.14
2022-12-19T03:44:33.655Z,42.85
2022-12-19T03:47:11.850Z,43.02
2022-12-19T03:49:40.663Z,41.52
2022-12-19T03:52:25.368Z,41.02
2022-12-19T03:55:18.243Z,41.20
2022-12-19T03:57:59.356Z,41.65
2022-12-19T04:00:29.972Z,42.21
2022-12-19T04:02:59.718Z,42.86
2022-12-19T04:05:29.118Z,43.01
2022-12-19T04:08:04.423Z,43.40
2022-12-19T04:10:38.572Z,43.88
2022-12-19T04:13:13.216Z,44.35
2022-12-19T04:16:01.442Z,45.24
2022-12-19T04:18:31.582Z,45.33
2022-12-19T04:21:13.203Z,45.34
2022-12-19T04:23:47.995Z,45.14
2022-12-19T04:26:18.848Z,45.26
2022-12-19T04:28:52.349Z,45.29
2022-12-19T04:31:22.176Z,45.15
2022-12-19T04:33:50.520Z,45.09
2022-12-19T04:36:19.022Z,45.24
2022-12-19T04:38:47.799Z,45.32
2022-12-19T04:41:16.061Z,45.52
2022-12-19T04:43:44.506Z,45.92
2022-12-19T04:46:13.182Z,46.21
2022-12-19T04:48:41.509Z,46.55
2022-12-19T04:51:10.193Z,46.97
2022-12-19T04:53:38.561Z,47.18
2022-12-19T04:56:07.672Z,47.38
2022-12-19T04:58:36.192Z,47.59
2022-12-19T05:01:06.845Z,47.39
2022-12-19T05:03:36.610Z,47.63
2022-12-19T05:06:05.280Z,47.74
2022-12-19T05:08:34.996Z,47.95
2022-12-19T05:11:05.175Z,48.17
2022-12-19T05:13:34.011Z,48.15
2022-12-19T05:16:05.598Z,48.24
2022-12-19T05:18:34.477Z,48.51
2022-12-19T05:21:03.344Z,48.61
2022-12-19T05:23:32.215Z,48.54
2022-12-19T05:26:02.040Z,48.74
2022-12-19T05:28:30.970Z,49.16
2022-12-19T05:31:08.847Z,49.43
2022-12-19T05:33:38.454Z,49.35
2022-12-19T05:36:08.555Z,49.46
2022-12-19T05:38:37.494Z,49.52
2022-12-19T05:41:17.953Z,49.51
2022-12-19T05:43:50.344Z,49.68
2022-12-19T05:46:19.434Z,49.77
2022-12-19T05:48:48.310Z,49.63
2022-12-19T05:51:16.995Z,49.59
2022-12-19T05:53:45.369Z,49.86
2022-12-19T05:56:17.093Z,50.02
2022-12-19T05:58:46.635Z,50.05
2022-12-19T06:01:18.986Z,50.42
2022-12-19T06:03:48.543Z,50.42
2022-12-19T06:06:20.208Z,50.45
2022-12-19T06:08:48.612Z,50.32
2022-12-19T06:11:16.960Z,50.59
2022-12-19T06:13:45.219Z,50.76
2022-12-19T06:16:15.781Z,51.14
2022-12-19T06:18:45.843Z,51.30
2022-12-19T06:21:20.500Z,51.35
2022-12-19T06:23:49.215Z,51.47
2022-12-19T06:26:22.694Z,51.68
2022-12-19T06:28:53.330Z,51.66
2022-12-19T06:31:23.608Z,51.59
2022-12-19T06:33:54.998Z,51.46
2022-12-19T06:36:26.252Z,51.63
2022-12-19T06:38:58.113Z,51.76
2022-12-19T06:41:46.539Z,51.82
2022-12-19T06:44:16.809Z,52.07
2022-12-19T06:46:45.372Z,51.97
2022-12-19T06:49:13.746Z,51.99
2022-12-19T06:51:42.876Z,51.82
2022-12-19T06:54:12.567Z,51.64
2022-12-19T06:56:42.902Z,51.58
2022-12-19T06:59:14.420Z,51.73
2022-12-19T07:02:02.918Z,51.59
2022-12-19T07:04:40.473Z,51.55
2022-12-19T07:07:09.064Z,51.75
2022-12-19T07:09:37.699Z,51.92
2022-12-19T07:12:06.212Z,52.33
2022-12-19T07:14:34.632Z,52.33
2022-12-19T07:17:04.021Z,52.22
2022-12-19T07:19:33.467Z,52.30
2022-12-19T07:22:03.733Z,52.39
2022-12-19T07:24:32.967Z,52.54
2022-12-19T07:27:01.332Z,52.77
2022-12-19T07:29:29.719Z,52.50
2022-12-19T07:31:58.136Z,52.36
2022-12-19T07:34:26.556Z,52.41
2022-12-19T07:36:55.117Z,52.34
2022-12-19T07:39:23.446Z,52.18
2022-12-19T07:41:51.793Z,52.13
2022-12-19T07:44:28.428Z,52.16
2022-12-19T07:46:56.807Z,51.96
2022-12-19T07:49:25.096Z,51.79
2022-12-19T07:51:53.667Z,51.71
2022-12-19T07:54:22.056Z,51.55
2022-12-19T07:56:51.109Z,51.35
2022-12-19T07:59:21.388Z,51.28
2022-12-19T08:01:52.917Z,51.21
2022-12-19T08:04:21.432Z,51.14
2022-12-19T08:06:49.772Z,51.30
2022-12-19T08:09:18.345Z,51.37
2022-12-19T08:11:46.925Z,51.13
2022-12-19T08:14:15.290Z,51.15
2022-12-19T08:17:11.390Z,51.17
2022-12-19T08:19:31.956Z,51.19
2022-12-19T08:22:00.293Z,51.29
2022-12-19T08:24:28.611Z,51.18
2022-12-19T08:26:57.451Z,51.17
2022-12-19T08:29:25.791Z,51.38
2022-12-19T08:31:54.360Z,51.26
2022-12-19T08:34:22.569Z,50.89
2022-12-19T08:36:50.950Z,50.89
2022-12-19T08:39:19.259Z,50.76
2022-12-19T08:41:47.774Z,50.55
2022-12-19T08:44:16.604Z,50.37
2022-12-19T08:46:50.043Z,50.18
2022-12-19T08:49:19.706Z,50.16
2022-12-19T08:51:48.031Z,49.99
2022-12-19T08:54:16.442Z,50.04
2022-12-19T08:56:46.253Z,50.10
2022-12-19T08:59:30.563Z,50.21
2022-12-19T09:02:02.236Z,50.18
2022-12-19T09:06:00.542Z,50.17
2022-12-19T09:07:19.470Z,49.96
2022-12-19T09:09:47.775Z,49.93
2022-12-19T09:12:16.925Z,49.76
2022-12-19T09:14:45.515Z,49.66
2022-12-19T09:17:14.052Z,49.54
2022-12-19T09:19:45.557Z,49.45
2022-12-19T09:22:16.963Z,49.40
2022-12-19T09:24:45.822Z,48.89
2022-12-19T09:27:14.740Z,48.78
2022-12-19T09:29:44.111Z,48.52
2022-12-19T09:32:12.637Z,47.68
2022-12-19T09:34:40.986Z,47.77
2022-12-19T09:37:16.939Z,47.53
2022-12-19T09:39:47.568Z,47.41
2022-12-19T09:42:48.539Z,47.32
2022-12-19T09:45:37.561Z,47.17
2022-12-19T09:48:23.909Z,47.21
2022-12-19T09:51:09.560Z,46.74
2022-12-19T09:53:38.411Z,46.38
2022-12-19T09:56:14.799Z,46.53
2022-12-19T09:59:28.492Z,46.56
2022-12-19T10:02:39.149Z,46.59
2022-12-19T10:05:52.319Z,46.41
2022-12-19T10:08:45.359Z,45.97
2022-12-19T10:12:39.583Z,45.68
2022-12-19T10:14:48.997Z,45.45
2022-12-19T10:17:41.950Z,44.37
2022-12-19T10:20:49.857Z,44.20
2022-12-19T10:23:50.412Z,44.65
2022-12-19T10:26:21.534Z,44.25
2022-12-19T10:29:13.515Z,44.11
2022-12-19T10:32:17.805Z,44.21
2022-12-19T10:34:48.237Z,44.14
2022-12-19T10:37:31.435Z,43.84
2022-12-19T10:40:34.901Z,43.95
2022-12-19T10:43:18.230Z,43.59
2022-12-19T10:45:58.570Z,43.34
2022-12-19T10:48:30.734Z,43.34
2022-12-19T10:51:06.484Z,43.04
2022-12-19T10:53:35.578Z,42.72
2022-12-19T10:56:23.270Z,42.62
2022-12-19T10:58:57.556Z,42.99
2022-12-19T11:01:27.555Z,42.42
2022-12-19T11:04:34.862Z,43.35
2022-12-19T11:07:03.936Z,45.54
2022-12-19T11:09:45.998Z,46.95
2022-12-19T11:16:15.360Z,48.97
2022-12-19T11:20:51.999Z,49.53
2022-12-19T11:29:14.654Z,51.00
2022-12-19T11:29:37.271Z,51.70
2022-12-19T11:30:37.380Z,52.29
2022-12-19T11:30:42.812Z,53.30
2022-12-19T11:32:44.480Z,53.14
2022-12-19T11:35:24.826Z,52.98
2022-12-19T11:37:58.345Z,54.36
2022-12-19T11:40:49.856Z,54.38
2022-12-19T11:43:46.914Z,54.58
2022-12-19T11:46:45.108Z,54.45
2022-12-19T11:49:38.855Z,55.34
2022-12-19T11:52:29.626Z,55.85
2022-12-19T11:55:08.254Z,55.66
2022-12-19T11:57:39.039Z,55.50
2022-12-19T12:00:13.227Z,55.64
2022-12-19T12:03:12.620Z,56.58
2022-12-19T12:05:48.539Z,57.12
2022-12-19T12:12:00.383Z,57.21
2022-12-19T12:15:00.028Z,57.35
2022-12-19T12:27:11.796Z,57.51
2022-12-19T12:31:00.177Z,57.70
2022-12-19T12:31:26.999Z,58.57
2022-12-19T12:31:50.450Z,59.21
2022-12-19T12:32:02.520Z,59.29
2022-12-19T12:32:03.003Z,58.70
2022-12-19T12:35:52.125Z,59.37
2022-12-19T12:39:36.678Z,60.10
2022-12-19T12:42:20.198Z,60.29
2022-12-19T12:44:52.914Z,60.52
2022-12-19T12:47:26.272Z,60.78
2022-12-19T12:50:00.882Z,61.09
2022-12-19T12:52:40.609Z,61.01
2022-12-19T12:55:40.342Z,61.15
2022-12-19T12:58:46.500Z,61.07
2022-12-19T13:01:30.423Z,61.23
2022-12-19T13:04:10.999Z,61.31
2022-12-19T13:06:52.077Z,61.06
2022-12-19T13:09:20.567Z,61.72
2022-12-19T13:12:13.033Z,61.75
2022-12-19T13:14:44.690Z,61.91
2022-12-19T13:17:20.661Z,61.75
2022-12-19T13:20:05.603Z,62.00
2022-12-19T13:22:33.900Z,61.66
2022-12-19T13:25:02.255Z,62.17
2022-12-19T13:27:37.435Z,62.58
2022-12-19T13:30:14.973Z,59.69
2022-12-19T13:32:43.604Z,57.00
2022-12-19T13:37:07.553Z,57.43
2022-12-19T13:39:57.818Z,57.62
2022-12-19T13:41:48.598Z,59.28
2022-12-19T13:44:22.447Z,59.39
2022-12-19T13:46:51.073Z,59.87
2022-12-19T13:49:30.536Z,60.38
2022-12-19T13:52:04.857Z,60.42
2022-12-19T13:54:51.917Z,61.01
2022-12-19T13:57:30.793Z,60.65
2022-12-19T14:00:06.708Z,61.81
2022-12-19T15:26:28.915Z,57.34
2022-12-19T15:28:58.337Z,57.61
2022-12-19T15:31:40.440Z,58.32
2022-12-19T15:34:48.293Z,59.50
2022-12-19T15:37:15.002Z,60.35
2022-12-19T15:39:44.670Z,60.60
2022-12-19T15:42:23.047Z,61.03
2022-12-19T15:44:53.868Z,60.65
2022-12-19T15:47:30.001Z,61.37
2022-12-19T15:50:02.659Z,61.52
2022-12-19T15:52:30.997Z,62.19
2022-12-19T15:54:59.257Z,62.86
2022-12-19T15:57:36.438Z,61.82
2022-12-19T16:00:17.167Z,58.27
2022-12-19T16:05:36.203Z,55.91
2022-12-19T16:08:12.176Z,56.99
2022-12-19T16:10:41.912Z,58.11
2022-12-19T16:13:24.394Z,59.31
2022-12-19T16:15:55.096Z,59.87
2022-12-19T16:18:23.735Z,60.49
2022-12-19T16:20:52.389Z,61.19
2022-12-19T16:23:22.439Z,61.07
2022-12-19T16:25:52.082Z,61.50
2022-12-19T16:28:23.917Z,62.12
2022-12-19T16:30:52.785Z,63.10
2022-12-19T16:33:24.048Z,59.98
2022-12-19T16:36:04.077Z,54.72
2022-12-19T16:38:33.645Z,54.16
2022-12-19T16:41:02.793Z,55.30
2022-12-19T16:43:40.939Z,56.23
2022-12-19T16:46:17.693Z,56.53
2022-12-19T16:48:50.010Z,59.12
2022-12-19T16:51:24.822Z,59.93
2022-12-19T16:53:57.679Z,60.75
2022-12-19T16:56:25.844Z,61.49
2022-12-19T16:58:56.495Z,61.74
2022-12-19T17:01:24.881Z,63.32
2022-12-19T17:03:54.522Z,62.48
2022-12-19T17:06:23.946Z,56.25
2022-12-19T17:08:54.033Z,54.43
2022-12-19T17:11:24.908Z,55.21
2022-12-19T17:14:00.608Z,56.90
2022-12-19T17:16:31.185Z,57.91
2022-12-19T17:18:59.984Z,59.12
2022-12-19T17:21:28.523Z,59.78
2022-12-19T17:23:56.988Z,61.08
2022-12-19T17:26:25.336Z,61.65
2022-12-19T17:28:53.660Z,62.17
2022-12-19T17:31:26.450Z,64.12
2022-12-19T17:33:57.937Z,61.02
2022-12-19T17:36:36.757Z,55.44
2022-12-19T17:39:23.169Z,55.23
2022-12-19T17:41:52.980Z,57.18
2022-12-19T17:44:21.339Z,58.15
2022-12-19T17:46:49.937Z,59.21
2022-12-19T17:49:27.120Z,60.88
2022-12-19T17:51:56.249Z,60.67
2022-12-19T17:54:25.744Z,62.64
2022-12-19T17:56:54.098Z,63.51
2022-12-19T17:59:22.449Z,57.57
2022-12-19T18:01:51.084Z,54.42
2022-12-19T18:04:21.790Z,55.57
2022-12-19T18:06:50.801Z,56.83
2022-12-19T18:09:25.353Z,58.07
2022-12-19T18:11:53.722Z,60.08
2022-12-19T18:14:22.063Z,60.23
2022-12-19T18:16:50.951Z,61.36
2022-12-19T18:19:21.851Z,61.09
2022-12-19T18:21:50.585Z,63.35
2022-12-19T18:24:18.924Z,62.03
2022-12-19T18:26:47.262Z,58.18
2022-12-19T18:29:16.429Z,55.45
2022-12-19T18:31:50.577Z,57.00
2022-12-19T18:34:23.239Z,57.12
2022-12-19T18:36:52.610Z,58.82
2022-12-19T18:39:24.945Z,60.92
2022-12-19T18:41:53.766Z,60.71
2022-12-19T18:44:23.221Z,61.80
2022-12-19T18:46:53.008Z,64.28
2022-12-19T18:49:22.997Z,63.45
2022-12-19T18:51:51.455Z,56.15
2022-12-19T18:54:22.326Z,54.92
2022-12-19T18:56:51.948Z,55.95
2022-12-19T18:59:20.591Z,58.18
2022-12-19T19:01:49.133Z,59.07
2022-12-19T19:04:18.339Z,59.63
2022-12-19T19:06:51.413Z,61.25
2022-12-19T19:09:21.658Z,63.60
2022-12-19T19:12:02.447Z,64.88
2022-12-19T19:14:30.905Z,60.97
2022-12-19T19:16:59.245Z,56.87
2022-12-19T19:19:27.706Z,53.26
2022-12-19T19:21:56.198Z,54.51
2022-12-19T19:24:24.585Z,56.71
2022-12-19T19:26:53.052Z,57.64
2022-12-19T19:29:21.826Z,59.15
2022-12-19T19:31:51.993Z,60.40
2022-12-19T19:34:31.720Z,61.45
2022-12-19T19:37:03.722Z,64.52
2022-12-19T19:39:34.194Z,65.80
2022-12-19T19:42:02.964Z,61.77
2022-12-19T19:44:32.550Z,54.56
2022-12-19T19:47:01.015Z,53.75
2022-12-19T19:49:29.416Z,55.84
2022-12-19T19:52:02.564Z,57.51
2022-12-19T19:54:32.336Z,58.45
2022-12-19T19:57:00.775Z,60.71
2022-12-19T19:59:31.434Z,63.65
2022-12-19T20:02:00.484Z,63.79
2022-12-19T20:04:29.313Z,60.06
2022-12-19T20:06:57.623Z,55.74
2022-12-19T20:09:26.187Z,56.18
2022-12-19T20:11:56.572Z,58.33
2022-12-19T20:14:26.988Z,60.14
2022-12-19T20:16:55.435Z,62.93
2022-12-19T20:19:23.744Z,63.25
2022-12-19T20:21:52.478Z,58.73
2022-12-19T20:24:20.955Z,56.39
2022-12-19T20:26:49.417Z,57.55
2022-12-19T20:29:17.809Z,59.09
2022-12-19T20:31:46.329Z,60.42
2022-12-19T20:34:14.799Z,63.12
2022-12-19T20:36:43.083Z,65.33
2022-12-19T20:39:12.574Z,59.72
2022-12-19T20:41:40.956Z,56.33
2022-12-19T20:44:09.453Z,58.25
2022-12-19T20:46:38.140Z,60.63
2022-12-19T20:49:06.565Z,63.09
2022-12-19T20:51:34.904Z,63.35
2022-12-19T20:54:04.876Z,57.97
2022-12-19T20:56:33.239Z,56.97
2022-12-19T20:59:01.790Z,58.35
2022-12-19T21:01:31.671Z,60.62
2022-12-19T21:04:00.296Z,63.39
2022-12-19T21:06:29.051Z,63.85
2022-12-19T21:08:58.015Z,59.74
2022-12-19T21:11:27.863Z,56.34
2022-12-19T21:13:56.146Z,56.48
2022-12-19T21:16:24.851Z,59.19
2022-12-19T21:18:53.339Z,60.80
2022-12-19T21:21:26.129Z,63.69
2022-12-19T21:23:55.260Z,63.72
2022-12-19T21:26:26.029Z,60.32
2022-12-19T21:28:58.083Z,56.53
2022-12-19T21:31:30.030Z,55.99
2022-12-19T21:34:00.564Z,58.33
2022-12-19T21:36:30.797Z,60.20
2022-12-19T21:39:02.237Z,63.49
2022-12-19T21:41:31.566Z,63.89
2022-12-19T21:44:00.707Z,62.75
2022-12-19T21:46:33.212Z,57.76
2022-12-19T21:49:03.317Z,56.51
2022-12-19T21:51:32.500Z,58.19
2022-12-19T21:54:03.690Z,60.99
2022-12-19T21:56:35.009Z,63.83
2022-12-19T21:59:06.997Z,64.57
2022-12-19T22:01:36.043Z,63.61
2022-12-19T22:04:07.886Z,61.59
2022-12-19T22:06:38.024Z,59.31
2022-12-19T22:09:09.180Z,55.21
2022-12-19T22:11:38.043Z,56.77
2022-12-19T22:14:07.314Z,57.72
2022-12-19T22:16:36.326Z,58.69
2022-12-19T22:19:05.284Z,59.91
2022-12-19T22:21:34.037Z,63.96
2022-12-19T22:24:03.774Z,68.21
2022-12-19T22:26:33.170Z,64.94
2022-12-19T22:29:01.517Z,61.68
2022-12-19T22:31:31.918Z,58.29
2022-12-19T22:34:12.750Z,56.36
2022-12-19T22:36:42.935Z,57.59
2022-12-19T22:39:14.416Z,58.74
2022-12-19T22:41:43.267Z,61.27
2022-12-19T22:44:23.699Z,64.45
2022-12-19T22:46:52.716Z,65.93
2022-12-19T22:49:21.317Z,64.32
2022-12-19T22:51:50.214Z,61.10
2022-12-19T22:54:18.633Z,58.56
2022-12-19T22:56:50.761Z,55.98
2022-12-19T22:59:19.413Z,56.50
2022-12-19T23:01:48.092Z,57.88
2022-12-19T23:04:17.616Z,60.24
2022-12-19T23:06:46.477Z,64.17
2022-12-19T23:09:16.994Z,67.20
2022-12-19T23:11:48.809Z,63.26
2022-12-19T23:14:19.176Z,59.30
2022-12-19T23:16:48.469Z,56.51
2022-12-19T23:19:17.642Z,57.77
2022-12-19T23:21:46.234Z,59.16
2022-12-19T23:24:15.242Z,59.74
2022-12-19T23:26:43.723Z,64.25
2022-12-19T23:29:15.007Z,66.05
2022-12-19T23:31:45.377Z,64.54
2022-12-19T23:34:15.496Z,62.56
2022-12-19T23:39:33.346Z,56.44
2022-12-19T23:42:01.672Z,55.65
2022-12-19T23:44:30.274Z,56.24
2022-12-19T23:47:02.912Z,58.43
2022-12-19T23:49:33.822Z,60.94
2022-12-19T23:52:02.569Z,64.59
2022-12-19T23:54:31.391Z,65.91
2022-12-19T23:56:59.688Z,63.58
2022-12-19T23:59:28.075Z,63.56
